X  Lukk Metar værinformasjon om luftfart     LIRA Ciampino–G. B. Pastine International Airport
Temperatur
63°F Temperatur
54°F Duggpunkt
73% Luftfuktighet



Vind
5 MPT
8 KM/T
2 M/S
4 KNP



150°
SSØ
Nåværende forhold

Klart Klart
Trykk 1015.92 (hPa) - 30 (inHg)
Sikt 6 (mil) - 9.7 (km)
Flyplass
Flyplass-kode LIRA

Plassering: Ciampino–G. B. Pastine International Airport
Avstand: 48 (mi)

Metar:
LIRA 280120Z 15004KT CAVOK 17/12 Q1016

Tid: 28-05-2024 01:20 CEST